createdAt,value
2023-01-09T00:01:00.267Z,-1.04
2023-01-09T00:03:33.107Z,-1.06
2023-01-09T00:06:05.505Z,-1.04
2023-01-09T00:08:37.570Z,-1.01
2023-01-09T00:11:09.696Z,-1.06
2023-01-09T00:13:41.655Z,-1.06
2023-01-09T00:16:13.736Z,-1.08
2023-01-09T00:18:46.377Z,-1.14
2023-01-09T00:21:19.477Z,-1.13
2023-01-09T00:23:53.385Z,-1.12
2023-01-09T00:26:25.505Z,-1.12
2023-01-09T00:28:57.497Z,-1.16
2023-01-09T00:31:29.525Z,-1.14
2023-01-09T00:34:04.690Z,-1.16
2023-01-09T00:36:36.795Z,-1.16
2023-01-09T00:39:08.755Z,-1.20
2023-01-09T00:41:42.743Z,-1.24
2023-01-09T00:44:16.412Z,-1.23
2023-01-09T00:46:50.237Z,-1.28
2023-01-09T00:49:23.302Z,-1.31
2023-01-09T00:51:55.506Z,-1.36
2023-01-09T00:54:28.671Z,-1.53
2023-01-09T00:57:00.926Z,-1.55
2023-01-09T00:59:32.950Z,-1.50
2023-01-09T01:02:05.321Z,-1.73
2023-01-09T01:04:56.137Z,-1.76
2023-01-09T01:07:40.838Z,-1.82
2023-01-09T01:10:15.569Z,-1.83
2023-01-09T01:12:48.437Z,-1.82
2023-01-09T01:15:20.944Z,-1.77
2023-01-09T01:17:53.206Z,-1.72
2023-01-09T01:20:26.158Z,-1.76
2023-01-09T01:22:58.237Z,-1.76
2023-01-09T01:25:30.279Z,-1.76
2023-01-09T01:28:02.322Z,-1.77
2023-01-09T01:30:37.376Z,-1.81
2023-01-09T01:33:09.997Z,-1.77
2023-01-09T01:35:42.595Z,-1.82
2023-01-09T01:38:14.617Z,-1.78
2023-01-09T01:40:52.137Z,-1.76
2023-01-09T01:43:24.368Z,-1.80
2023-01-09T01:45:56.400Z,-1.81
2023-01-09T01:48:29.873Z,-1.89
2023-01-09T01:51:04.314Z,-1.85
2023-01-09T01:53:37.719Z,-1.90
2023-01-09T01:56:13.822Z,-1.91
2023-01-09T01:58:47.494Z,-1.80
2023-01-09T02:01:20.427Z,-1.77
2023-01-09T02:03:54.271Z,-1.78
2023-01-09T02:06:27.337Z,-1.73
2023-01-09T02:09:00.305Z,-1.78
2023-01-09T02:11:32.531Z,-1.76
2023-01-09T02:14:04.586Z,-1.77
2023-01-09T02:16:47.027Z,-1.78
2023-01-09T02:19:33.504Z,-1.66
2023-01-09T02:22:12.639Z,-1.56
2023-01-09T02:24:57.163Z,-1.46
2023-01-09T02:27:56.157Z,-1.47
2023-01-09T02:30:40.424Z,-1.42
2023-01-09T02:33:20.755Z,-1.53
2023-01-09T02:36:00.139Z,-1.53
2023-01-09T02:38:35.572Z,-1.48
2023-01-09T02:41:10.991Z,-1.41
2023-01-09T02:43:43.035Z,-1.39
2023-01-09T02:46:19.861Z,-1.35
2023-01-09T02:48:52.765Z,-1.27
2023-01-09T02:51:29.887Z,-1.26
2023-01-09T02:54:08.347Z,-1.19
2023-01-09T02:56:57.666Z,-1.14
2023-01-09T02:59:34.063Z,-1.15
2023-01-09T03:02:19.346Z,-1.18
2023-01-09T03:04:56.903Z,-1.13
2023-01-09T03:07:32.815Z,-1.03
2023-01-09T03:10:08.628Z,-1.03
2023-01-09T03:12:42.514Z,-1.03
2023-01-09T03:15:15.042Z,-0.97
2023-01-09T03:17:49.360Z,-0.99
2023-01-09T03:20:23.733Z,-0.89
2023-01-09T03:22:56.627Z,-0.98
2023-01-09T03:25:29.564Z,-0.99
2023-01-09T03:28:02.713Z,-0.91
2023-01-09T03:30:35.567Z,-0.82
2023-01-09T03:33:08.249Z,-0.83
2023-01-09T03:35:40.227Z,-0.73
2023-01-09T03:38:12.302Z,-0.79
2023-01-09T03:40:44.303Z,-0.70
2023-01-09T03:43:16.343Z,-0.62
2023-01-09T03:45:48.377Z,-0.58
2023-01-09T03:48:21.128Z,-0.48
2023-01-09T03:50:53.899Z,-0.47
2023-01-09T03:53:26.876Z,-0.39
2023-01-09T03:55:58.869Z,-0.29
2023-01-09T03:58:30.993Z,-0.22
2023-01-09T04:01:04.631Z,-0.17
2023-01-09T04:03:37.530Z,-0.10
2023-01-09T04:06:09.755Z,-0.16
2023-01-09T04:08:41.834Z,-0.02
2023-01-09T04:11:13.928Z,-0.03
2023-01-09T04:13:45.983Z,0.09
2023-01-09T04:16:18.033Z,0.15
2023-01-09T04:18:50.799Z,0.19
2023-01-09T04:21:22.808Z,0.21
2023-01-09T04:23:54.872Z,0.24
2023-01-09T04:26:26.881Z,0.05
2023-01-09T04:28:59.837Z,0.26
2023-01-09T04:31:31.865Z,0.32
2023-01-09T04:34:04.649Z,0.38
2023-01-09T04:36:36.651Z,0.37
2023-01-09T04:39:08.812Z,0.32
2023-01-09T04:41:49.812Z,0.24
2023-01-09T04:44:25.481Z,0.33
2023-01-09T04:46:58.313Z,0.39
2023-01-09T04:49:31.041Z,0.44
2023-01-09T04:52:03.102Z,0.48
2023-01-09T04:54:35.127Z,0.44
2023-01-09T04:57:07.247Z,0.42
2023-01-09T04:59:39.276Z,0.36
2023-01-09T05:02:11.414Z,0.50
2023-01-09T05:04:44.209Z,0.51
2023-01-09T05:07:16.433Z,0.54
2023-01-09T05:09:48.510Z,0.57
2023-01-09T05:12:20.520Z,0.58
2023-01-09T05:14:52.683Z,0.58
2023-01-09T05:17:24.685Z,0.63
2023-01-09T05:19:57.405Z,0.68
2023-01-09T05:22:29.416Z,0.65
2023-01-09T05:25:01.635Z,0.75
2023-01-09T05:27:33.648Z,0.72
2023-01-09T05:30:06.242Z,0.68
2023-01-09T05:32:38.275Z,0.66
2023-01-09T05:35:11.041Z,0.64
2023-01-09T05:37:43.044Z,0.50
2023-01-09T05:40:15.153Z,0.37
2023-01-09T05:42:47.171Z,0.34
2023-01-09T05:45:19.268Z,0.38
2023-01-09T05:47:51.252Z,0.39
2023-01-09T05:50:23.976Z,0.37
2023-01-09T05:52:56.033Z,0.35
2023-01-09T05:55:28.010Z,0.33
2023-01-09T05:58:00.158Z,0.31
2023-01-09T06:00:32.571Z,0.12
2023-01-09T06:03:04.646Z,0.15
2023-01-09T06:05:37.357Z,0.00
2023-01-09T06:08:09.581Z,-0.11
2023-01-09T06:10:41.556Z,-0.10
2023-01-09T06:13:13.603Z,-0.05
2023-01-09T06:15:47.030Z,0.01
2023-01-09T06:18:19.085Z,0.04
2023-01-09T06:20:51.740Z,-0.06
2023-01-09T06:23:23.844Z,-0.06
2023-01-09T06:25:55.884Z,-0.04
2023-01-09T06:28:27.960Z,-0.08
2023-01-09T06:31:00.025Z,-0.15
2023-01-09T06:33:32.593Z,-0.08
2023-01-09T06:36:05.686Z,-0.32
2023-01-09T06:38:37.725Z,-0.60
2023-01-09T06:41:09.942Z,-0.46
2023-01-09T06:43:41.986Z,-0.40
2023-01-09T06:46:14.044Z,-0.53
2023-01-09T06:48:46.168Z,-0.42
2023-01-09T06:51:18.880Z,-0.62
2023-01-09T06:53:50.969Z,-0.74
2023-01-09T06:56:22.973Z,-0.61
2023-01-09T06:58:55.216Z,-0.49
2023-01-09T07:01:27.479Z,-0.38
2023-01-09T07:03:59.586Z,-0.36
2023-01-09T07:06:32.506Z,-0.31
2023-01-09T07:09:05.302Z,-0.31
2023-01-09T07:11:37.537Z,-0.30
2023-01-09T07:14:09.587Z,-0.22
2023-01-09T07:16:41.578Z,-0.18
2023-01-09T07:19:13.655Z,-0.15
2023-01-09T07:21:46.431Z,-0.05
2023-01-09T07:24:18.503Z,0.02
2023-01-09T07:26:50.560Z,0.10
2023-01-09T07:29:22.553Z,0.18
2023-01-09T07:31:54.606Z,0.18
2023-01-09T07:34:26.724Z,0.33
2023-01-09T07:36:59.376Z,0.40
2023-01-09T07:39:31.536Z,0.61
2023-01-09T07:42:03.608Z,0.93
2023-01-09T07:44:35.689Z,1.23
2023-01-09T07:47:08.050Z,1.53
2023-01-09T07:49:40.130Z,1.79
2023-01-09T07:52:12.816Z,1.97
2023-01-09T07:54:44.901Z,2.17
2023-01-09T07:57:16.911Z,2.37
2023-01-09T07:59:48.993Z,2.52
2023-01-09T08:02:21.087Z,2.74
2023-01-09T08:04:53.219Z,2.88
2023-01-09T08:07:25.859Z,2.92
2023-01-09T08:09:58.110Z,3.20
2023-01-09T08:12:30.111Z,3.33
2023-01-09T08:15:02.255Z,3.49
2023-01-09T08:17:34.289Z,3.62
2023-01-09T08:20:06.541Z,3.73
2023-01-09T08:22:40.465Z,3.82
2023-01-09T08:25:13.038Z,3.96
2023-01-09T08:27:45.125Z,4.09
2023-01-09T08:30:17.774Z,4.07
2023-01-09T08:32:50.327Z,4.16
2023-01-09T08:35:22.436Z,4.32
2023-01-09T08:37:55.129Z,4.30
2023-01-09T08:40:27.277Z,4.45
2023-01-09T08:43:17.237Z,4.58
2023-01-09T08:46:07.892Z,4.83
2023-01-09T08:48:39.851Z,4.90
2023-01-09T08:51:11.902Z,5.06
2023-01-09T08:53:44.633Z,5.07
2023-01-09T08:56:16.604Z,5.23
2023-01-09T08:58:48.658Z,5.28
2023-01-09T09:01:20.657Z,5.18
2023-01-09T09:03:52.991Z,5.36
2023-01-09T09:06:24.986Z,5.39
2023-01-09T09:09:02.360Z,5.26
2023-01-09T09:11:34.886Z,5.50
2023-01-09T09:14:21.759Z,5.66
2023-01-09T09:16:54.024Z,5.78
2023-01-09T09:19:26.098Z,5.73
2023-01-09T09:21:58.097Z,5.73
2023-01-09T09:24:30.783Z,6.04
2023-01-09T09:27:04.030Z,5.97
2023-01-09T09:29:36.178Z,6.24
2023-01-09T09:32:08.192Z,6.48
2023-01-09T09:34:40.301Z,6.43
2023-01-09T09:37:12.413Z,6.56
2023-01-09T09:39:45.274Z,6.53
2023-01-09T09:42:45.405Z,6.52
2023-01-09T09:45:24.065Z,6.61
2023-01-09T09:47:59.952Z,6.83
2023-01-09T09:50:50.543Z,6.71
2023-01-09T09:53:26.044Z,6.99
2023-01-09T09:55:58.931Z,6.90
2023-01-09T09:58:34.027Z,6.98
2023-01-09T10:01:07.085Z,7.02
2023-01-09T10:03:41.473Z,7.13
2023-01-09T10:06:16.664Z,7.24
2023-01-09T10:08:53.205Z,7.41
2023-01-09T10:11:28.843Z,7.74
2023-01-09T10:14:19.121Z,7.91
2023-01-09T10:17:06.307Z,7.97
2023-01-09T10:19:48.421Z,8.37
2023-01-09T10:22:25.188Z,8.70
2023-01-09T10:25:06.090Z,8.63
2023-01-09T10:27:47.836Z,8.72
2023-01-09T10:30:25.673Z,8.78
2023-01-09T10:33:06.498Z,8.42
2023-01-09T10:35:49.193Z,8.49
2023-01-09T10:38:24.672Z,8.71
2023-01-09T10:41:02.413Z,8.95
2023-01-09T10:43:39.062Z,8.65
2023-01-09T10:46:14.796Z,8.88
2023-01-09T10:48:50.364Z,9.13
2023-01-09T10:51:24.554Z,9.21
2023-01-09T10:53:56.635Z,9.40
2023-01-09T10:56:30.450Z,9.43
2023-01-09T10:59:03.201Z,9.59
2023-01-09T11:01:37.651Z,9.59
2023-01-09T11:04:17.367Z,9.26
2023-01-09T11:06:50.735Z,9.18
2023-01-09T11:09:22.828Z,9.39
2023-01-09T11:11:54.865Z,9.46
2023-01-09T11:14:30.548Z,9.49
2023-01-09T11:17:03.577Z,9.54
2023-01-09T11:19:35.709Z,9.02
2023-01-09T11:22:08.732Z,9.02
2023-01-09T11:24:41.367Z,8.73
2023-01-09T11:27:25.292Z,8.81
2023-01-09T11:30:06.804Z,8.88
2023-01-09T11:32:38.823Z,8.91
2023-01-09T11:35:16.764Z,9.09
2023-01-09T11:37:56.944Z,9.14
2023-01-09T11:40:31.659Z,9.21
2023-01-09T11:43:08.769Z,9.36
2023-01-09T11:45:56.425Z,9.38
2023-01-09T11:48:36.430Z,9.42
2023-01-09T11:51:19.081Z,9.46
2023-01-09T11:54:00.949Z,9.09
2023-01-09T11:56:33.049Z,8.50
2023-01-09T11:59:08.820Z,8.43
2023-01-09T12:01:57.996Z,8.84
2023-01-09T12:04:34.900Z,9.10
2023-01-09T12:07:24.490Z,9.58
2023-01-09T12:10:01.894Z,9.91
2023-01-09T12:12:38.056Z,10.24
2023-01-09T12:15:20.709Z,10.49
2023-01-09T12:17:58.754Z,10.60
2023-01-09T12:20:37.966Z,10.51
2023-01-09T12:23:17.889Z,10.50
2023-01-09T12:25:53.303Z,10.35
2023-01-09T12:28:39.335Z,10.43
2023-01-09T12:31:19.063Z,10.04
2023-01-09T12:33:58.702Z,10.15
2023-01-09T12:36:34.953Z,10.10
2023-01-09T12:39:14.161Z,10.05
2023-01-09T12:42:04.111Z,9.91
2023-01-09T12:44:44.275Z,9.40
2023-01-09T12:47:28.100Z,9.65
2023-01-09T12:50:06.373Z,9.46
2023-01-09T12:52:41.297Z,9.44
2023-01-09T12:55:17.366Z,9.76
2023-01-09T12:57:50.635Z,9.46
2023-01-09T13:00:24.610Z,9.49
2023-01-09T13:03:11.259Z,9.48
2023-01-09T13:05:46.568Z,9.52
2023-01-09T13:08:22.287Z,9.18
2023-01-09T13:10:57.607Z,9.22
2023-01-09T13:13:33.548Z,9.37
2023-01-09T13:16:10.314Z,9.29
2023-01-09T13:18:43.682Z,9.31
2023-01-09T13:21:16.559Z,9.16
2023-01-09T13:23:51.798Z,9.11
2023-01-09T13:26:25.537Z,9.12
2023-01-09T13:29:02.397Z,8.97
2023-01-09T13:31:42.736Z,8.91
2023-01-09T13:34:21.990Z,9.12
2023-01-09T13:36:56.453Z,9.17
2023-01-09T13:39:31.577Z,9.27
2023-01-09T13:42:22.523Z,9.44
2023-01-09T13:44:55.867Z,9.25
2023-01-09T13:47:28.329Z,9.36
2023-01-09T13:50:04.562Z,9.45
2023-01-09T13:52:38.454Z,9.23
2023-01-09T13:55:25.398Z,9.19
2023-01-09T13:58:16.003Z,9.12
2023-01-09T14:00:49.716Z,8.90
2023-01-09T14:03:25.194Z,8.83
2023-01-09T14:06:17.507Z,8.80
2023-01-09T14:09:03.704Z,8.73
2023-01-09T14:11:35.773Z,8.61
2023-01-09T14:14:24.050Z,8.59
2023-01-09T14:16:58.471Z,8.71
2023-01-09T14:19:35.909Z,8.66
2023-01-09T14:22:23.116Z,8.68
2023-01-09T14:25:00.856Z,8.74
2023-01-09T14:28:03.540Z,8.68
2023-01-09T14:30:36.951Z,8.80
2023-01-09T14:33:26.215Z,8.71
2023-01-09T14:36:03.326Z,8.57
2023-01-09T14:38:37.917Z,8.49
2023-01-09T14:41:20.213Z,8.55
2023-01-09T14:43:54.624Z,8.50
2023-01-09T14:46:30.563Z,8.33
2023-01-09T14:49:06.250Z,8.29
2023-01-09T14:51:42.543Z,8.37
2023-01-09T14:54:31.395Z,8.33
2023-01-09T14:57:22.275Z,8.25
2023-01-09T14:59:55.008Z,8.30
2023-01-09T15:02:29.345Z,8.36
2023-01-09T15:05:05.345Z,8.32
2023-01-09T15:07:43.616Z,8.17
2023-01-09T15:10:17.504Z,7.97
2023-01-09T15:12:51.463Z,8.20
2023-01-09T15:15:24.003Z,8.16
2023-01-09T15:17:57.816Z,8.24
2023-01-09T15:20:31.121Z,8.25
2023-01-09T15:23:03.555Z,7.99
2023-01-09T15:25:40.643Z,8.05
2023-01-09T15:28:22.354Z,7.91
2023-01-09T15:31:05.911Z,7.85
2023-01-09T15:33:38.774Z,7.84
2023-01-09T15:36:13.220Z,7.40
2023-01-09T15:38:45.646Z,7.58
2023-01-09T15:41:39.317Z,7.54
2023-01-09T15:44:13.927Z,7.38
2023-01-09T15:46:49.305Z,7.09
2023-01-09T15:49:21.775Z,7.17
2023-01-09T15:51:54.014Z,7.12
2023-01-09T15:54:28.372Z,7.14
2023-01-09T15:57:19.140Z,7.31
2023-01-09T15:59:52.315Z,7.30
2023-01-09T16:02:43.780Z,7.33
2023-01-09T16:05:16.658Z,7.31
2023-01-09T16:07:50.081Z,7.34
2023-01-09T16:10:23.449Z,7.28
2023-01-09T16:12:55.749Z,7.18
2023-01-09T16:15:32.789Z,7.24
2023-01-09T16:18:05.695Z,7.14
2023-01-09T16:20:37.835Z,7.05
2023-01-09T16:23:17.898Z,6.91
2023-01-09T16:25:49.950Z,6.99
2023-01-09T16:28:26.235Z,6.88
2023-01-09T16:31:00.311Z,6.72
2023-01-09T16:33:32.426Z,6.79
2023-01-09T16:36:05.515Z,6.80
2023-01-09T16:38:37.538Z,6.79
2023-01-09T16:41:32.351Z,6.81
2023-01-09T16:44:08.796Z,6.88
2023-01-09T16:46:43.023Z,6.99
2023-01-09T16:49:16.756Z,7.03
2023-01-09T16:51:48.848Z,7.02
2023-01-09T16:54:21.049Z,6.96
2023-01-09T16:56:54.087Z,7.11
2023-01-09T16:59:27.196Z,7.08
2023-01-09T17:01:59.928Z,7.02
2023-01-09T17:04:32.276Z,7.11
2023-01-09T17:07:04.241Z,7.09
2023-01-09T17:09:37.480Z,7.01
2023-01-09T17:12:15.045Z,7.00
2023-01-09T17:14:47.185Z,7.04
2023-01-09T17:17:20.447Z,7.09
2023-01-09T17:19:52.770Z,7.15
2023-01-09T17:22:24.764Z,7.02
2023-01-09T17:25:14.758Z,6.99
2023-01-09T17:28:05.147Z,6.86
2023-01-09T17:30:37.215Z,6.90
2023-01-09T17:33:14.263Z,6.88
2023-01-09T17:35:46.349Z,6.83
2023-01-09T17:38:18.597Z,6.91
2023-01-09T17:40:51.615Z,6.80
2023-01-09T17:43:23.836Z,6.82
2023-01-09T17:45:55.937Z,6.86
2023-01-09T17:48:28.611Z,6.81
2023-01-09T17:51:01.077Z,6.79
2023-01-09T17:53:33.059Z,6.83
2023-01-09T17:56:05.323Z,6.83
2023-01-09T17:58:37.307Z,6.86
2023-01-09T18:01:09.908Z,6.86
2023-01-09T18:03:42.747Z,6.89
2023-01-09T18:06:16.110Z,7.01
2023-01-09T18:08:48.171Z,6.98
2023-01-09T18:11:21.259Z,6.93
2023-01-09T18:13:53.406Z,6.94
2023-01-09T18:16:26.621Z,7.04
2023-01-09T18:19:00.426Z,6.99
2023-01-09T18:21:32.770Z,6.87
2023-01-09T18:24:05.188Z,7.01
2023-01-09T18:26:37.447Z,7.03
2023-01-09T18:29:10.750Z,6.90
2023-01-09T18:31:42.935Z,6.80
2023-01-09T18:34:15.879Z,6.83
2023-01-09T18:36:48.199Z,6.83
2023-01-09T18:39:21.350Z,6.85
2023-01-09T18:41:53.587Z,6.99
2023-01-09T18:44:25.862Z,7.03
2023-01-09T18:46:58.228Z,6.92
2023-01-09T18:49:30.957Z,6.82
2023-01-09T18:52:03.074Z,6.92
2023-01-09T18:54:35.426Z,6.96
2023-01-09T18:57:07.565Z,6.99
2023-01-09T18:59:39.663Z,6.99
2023-01-09T19:02:18.342Z,6.88
2023-01-09T19:04:51.003Z,6.56
2023-01-09T19:07:23.026Z,6.67
2023-01-09T19:09:55.023Z,6.63
2023-01-09T19:12:27.074Z,6.61
2023-01-09T19:14:59.073Z,6.44
2023-01-09T19:17:32.586Z,6.43
2023-01-09T19:20:06.499Z,6.50
2023-01-09T19:22:38.763Z,6.47
2023-01-09T19:25:11.795Z,6.37
2023-01-09T19:27:43.928Z,6.34
2023-01-09T19:30:16.386Z,6.27
2023-01-09T19:32:49.193Z,6.34
2023-01-09T19:35:21.853Z,6.20
2023-01-09T19:37:54.734Z,6.26
2023-01-09T19:40:27.579Z,6.25
2023-01-09T19:43:01.129Z,6.12
2023-01-09T19:45:34.792Z,6.20
2023-01-09T19:48:07.331Z,6.30
2023-01-09T19:50:42.266Z,6.36
2023-01-09T19:53:15.608Z,6.31
2023-01-09T19:55:48.928Z,6.34
2023-01-09T19:58:21.322Z,6.33
2023-01-09T20:00:53.375Z,6.15
2023-01-09T20:03:25.614Z,6.25
2023-01-09T20:06:03.950Z,6.29
2023-01-09T20:08:36.286Z,6.28
2023-01-09T20:11:08.333Z,6.22
2023-01-09T20:13:40.448Z,6.27
2023-01-09T20:16:19.117Z,6.29
2023-01-09T20:18:51.459Z,6.21
2023-01-09T20:21:26.214Z,6.09
2023-01-09T20:23:59.300Z,6.26
2023-01-09T20:26:32.553Z,6.20
2023-01-09T20:29:04.760Z,6.10
2023-01-09T20:31:36.893Z,5.97
2023-01-09T20:34:09.935Z,5.71
2023-01-09T20:36:42.639Z,5.64
2023-01-09T20:39:15.019Z,5.66
2023-01-09T20:41:47.008Z,5.55
2023-01-09T20:44:19.092Z,5.40
2023-01-09T20:46:52.849Z,5.92
2023-01-09T20:49:24.968Z,5.61
2023-01-09T20:51:57.675Z,5.54
2023-01-09T20:54:29.732Z,5.90
2023-01-09T20:57:01.826Z,6.10
2023-01-09T20:59:33.824Z,6.20
2023-01-09T21:02:06.116Z,6.24
2023-01-09T21:04:38.065Z,6.34
2023-01-09T21:07:11.536Z,6.40
2023-01-09T21:09:43.555Z,6.43
2023-01-09T21:12:26.809Z,6.43
2023-01-09T21:15:01.403Z,6.59
2023-01-09T21:17:34.053Z,6.57
2023-01-09T21:20:07.289Z,6.63
2023-01-09T21:22:40.098Z,6.66
2023-01-09T21:25:12.413Z,6.71
2023-01-09T21:27:45.405Z,6.76
2023-01-09T21:30:17.384Z,6.70
2023-01-09T21:32:49.546Z,6.67
2023-01-09T21:35:21.575Z,6.62
2023-01-09T21:37:54.333Z,6.68
2023-01-09T21:40:26.381Z,6.66
2023-01-09T21:43:16.661Z,6.71
2023-01-09T21:46:06.734Z,6.63
2023-01-09T21:48:38.788Z,6.61
2023-01-09T21:51:10.803Z,6.24
2023-01-09T21:53:43.519Z,6.45
2023-01-09T21:56:15.565Z,6.26
2023-01-09T21:58:48.505Z,6.34
2023-01-09T22:01:20.606Z,6.30
2023-01-09T22:03:52.986Z,6.35
2023-01-09T22:06:25.442Z,6.43
2023-01-09T22:08:58.135Z,6.44
2023-01-09T22:11:30.151Z,6.42
2023-01-09T22:14:02.225Z,6.27
2023-01-09T22:16:34.343Z,6.25
2023-01-09T22:19:06.474Z,6.33
2023-01-09T22:21:38.732Z,6.44
2023-01-09T22:24:13.499Z,6.44
2023-01-09T22:26:46.096Z,6.44
2023-01-09T22:29:18.184Z,6.48
2023-01-09T22:31:50.227Z,6.50
2023-01-09T22:34:22.477Z,6.40
2023-01-09T22:36:54.573Z,6.38
2023-01-09T22:39:27.381Z,6.40
2023-01-09T22:41:59.383Z,6.53
2023-01-09T22:44:31.442Z,6.47
2023-01-09T22:47:03.655Z,6.30
2023-01-09T22:49:51.968Z,6.43
2023-01-09T22:52:24.585Z,6.29
2023-01-09T22:54:57.339Z,6.29
2023-01-09T22:57:29.373Z,6.22
2023-01-09T23:00:01.672Z,6.25
2023-01-09T23:02:35.795Z,6.33
2023-01-09T23:05:08.111Z,6.41
2023-01-09T23:07:40.125Z,6.40
2023-01-09T23:10:12.873Z,6.51
2023-01-09T23:12:47.744Z,6.42
2023-01-09T23:15:19.799Z,6.48
2023-01-09T23:17:51.867Z,6.51
2023-01-09T23:20:23.981Z,6.58
2023-01-09T23:22:57.706Z,6.54
2023-01-09T23:25:31.631Z,6.48
2023-01-09T23:28:04.023Z,6.49
2023-01-09T23:30:36.130Z,6.38
2023-01-09T23:33:08.134Z,6.50
2023-01-09T23:35:40.253Z,6.41
2023-01-09T23:38:13.022Z,6.47
2023-01-09T23:40:45.824Z,6.55
2023-01-09T23:43:17.545Z,6.49
2023-01-09T23:45:50.577Z,6.50
2023-01-09T23:48:22.594Z,6.54
2023-01-09T23:50:54.685Z,6.53
2023-01-09T23:53:26.680Z,6.70
2023-01-09T23:56:00.442Z,6.73
2023-01-09T23:58:32.521Z,6.70
